Terminal Aerodrome Forecast
Issued by NWS

Home | Current Version | Previous Version | Text Only | Print | Product List | Glossary On
Versions: 1 2 3 4 5 6 7 8 9 10 11 12 13
000
FTUS44 KCRP 200500
TAFALI
TAF
KALI 200530Z 2006/2106 11010KT P6SM SCT025 BKN200
      TEMPO 2006/2009 BKN018
     FM200900 08004KT P6SM SCT018 BKN080
      TEMPO 2010/2013 5SM BR BKN018
     FM201400 10008KT P6SM VCSH SCT025 BKN100
     FM201800 09011KT P6SM VCTS SCT035CB
      TEMPO 2018/2022 4SM TSRA BKN028CB
     FM210000 06003KT P6SM SCT015=

USA.gov is the U.S. government's official web portal to all federal, state and local government web resources and services.